sensor_id;sensor_type;location;lat;lon;timestamp;P1;durP1;ratioP1;P2;durP2;ratioP2
50689;SDS011;71367;48.298;11.238;2023-09-19T00:03:43;3.13;;;1.30;;
50689;SDS011;71367;48.298;11.238;2023-09-19T00:18:48;3.70;;;1.65;;
50689;SDS011;71367;48.298;11.238;2023-09-19T00:33:51;4.07;;;1.80;;
50689;SDS011;71367;48.298;11.238;2023-09-19T00:48:57;2.28;;;1.27;;
50689;SDS011;71367;48.298;11.238;2023-09-19T01:04:00;3.20;;;1.40;;
50689;SDS011;71367;48.298;11.238;2023-09-19T01:19:11;3.63;;;1.42;;
50689;SDS011;71367;48.298;11.238;2023-09-19T01:34:45;5.05;;;1.80;;
50689;SDS011;71367;48.298;11.238;2023-09-19T01:49:55;5.30;;;1.77;;
50689;SDS011;71367;48.298;11.238;2023-09-19T02:05:05;3.17;;;1.60;;
50689;SDS011;71367;48.298;11.238;2023-09-19T02:20:10;4.57;;;1.75;;
50689;SDS011;71367;48.298;11.238;2023-09-19T02:35:16;3.28;;;1.55;;
50689;SDS011;71367;48.298;11.238;2023-09-19T02:50:21;3.22;;;1.50;;
50689;SDS011;71367;48.298;11.238;2023-09-19T03:05:25;2.80;;;1.60;;
50689;SDS011;71367;48.298;11.238;2023-09-19T03:20:33;4.60;;;1.70;;
50689;SDS011;71367;48.298;11.238;2023-09-19T03:35:38;6.55;;;1.88;;
50689;SDS011;71367;48.298;11.238;2023-09-19T03:50:43;3.95;;;1.80;;
50689;SDS011;71367;48.298;11.238;2023-09-19T04:05:47;4.70;;;1.60;;
50689;SDS011;71367;48.298;11.238;2023-09-19T04:20:51;4.95;;;1.73;;
50689;SDS011;71367;48.298;11.238;2023-09-19T04:35:55;4.45;;;1.60;;
50689;SDS011;71367;48.298;11.238;2023-09-19T04:50:59;3.70;;;1.90;;
50689;SDS011;71367;48.298;11.238;2023-09-19T05:06:02;4.60;;;1.90;;
50689;SDS011;71367;48.298;11.238;2023-09-19T05:21:07;4.35;;;2.08;;
50689;SDS011;71367;48.298;11.238;2023-09-19T05:36:10;4.28;;;1.73;;
50689;SDS011;71367;48.298;11.238;2023-09-19T05:51:13;4.53;;;1.67;;
50689;SDS011;71367;48.298;11.238;2023-09-19T06:06:19;2.95;;;1.60;;
50689;SDS011;71367;48.298;11.238;2023-09-19T06:21:23;5.32;;;1.55;;
50689;SDS011;71367;48.298;11.238;2023-09-19T06:36:26;5.60;;;1.75;;
50689;SDS011;71367;48.298;11.238;2023-09-19T06:51:30;4.10;;;1.65;;
50689;SDS011;71367;48.298;11.238;2023-09-19T07:06:34;2.63;;;1.25;;
50689;SDS011;71367;48.298;11.238;2023-09-19T07:21:38;4.15;;;1.30;;
50689;SDS011;71367;48.298;11.238;2023-09-19T07:36:41;3.83;;;1.30;;
50689;SDS011;71367;48.298;11.238;2023-09-19T07:51:45;2.75;;;1.23;;
50689;SDS011;71367;48.298;11.238;2023-09-19T08:06:49;4.20;;;1.30;;
50689;SDS011;71367;48.298;11.238;2023-09-19T08:21:53;3.03;;;1.20;;
50689;SDS011;71367;48.298;11.238;2023-09-19T08:37:00;3.80;;;1.30;;
50689;SDS011;71367;48.298;11.238;2023-09-19T08:52:05;4.00;;;1.35;;
50689;SDS011;71367;48.298;11.238;2023-09-19T09:07:13;1.38;;;1.00;;
50689;SDS011;71367;48.298;11.238;2023-09-19T09:22:21;4.60;;;3.35;;
50689;SDS011;71367;48.298;11.238;2023-09-19T09:37:26;5.10;;;1.33;;
50689;SDS011;71367;48.298;11.238;2023-09-19T09:52:32;3.13;;;0.93;;
50689;SDS011;71367;48.298;11.238;2023-09-19T10:07:50;2.27;;;0.97;;
50689;SDS011;71367;48.298;11.238;2023-09-19T10:22:56;1.83;;;1.00;;
50689;SDS011;71367;48.298;11.238;2023-09-19T10:38:02;2.33;;;1.20;;
50689;SDS011;71367;48.298;11.238;2023-09-19T10:53:11;2.03;;;0.90;;
50689;SDS011;71367;48.298;11.238;2023-09-19T11:08:17;2.53;;;1.20;;
50689;SDS011;71367;48.298;11.238;2023-09-19T11:23:23;4.50;;;1.15;;
50689;SDS011;71367;48.298;11.238;2023-09-19T11:54:12;3.33;;;1.00;;
50689;SDS011;71367;48.298;11.238;2023-09-19T12:09:21;1.92;;;1.00;;
50689;SDS011;71367;48.298;11.238;2023-09-19T12:24:29;2.87;;;1.10;;
50689;SDS011;71367;48.298;11.238;2023-09-19T12:39:34;1.27;;;0.75;;
50689;SDS011;71367;48.298;11.238;2023-09-19T12:54:43;1.98;;;1.00;;
50689;SDS011;71367;48.298;11.238;2023-09-19T13:10:03;2.63;;;0.90;;
50689;SDS011;71367;48.298;11.238;2023-09-19T13:25:13;3.97;;;1.07;;
50689;SDS011;71367;48.298;11.238;2023-09-19T13:40:20;3.27;;;1.20;;
50689;SDS011;71367;48.298;11.238;2023-09-19T13:55:25;2.58;;;1.08;;
50689;SDS011;71367;48.298;11.238;2023-09-19T14:10:28;2.80;;;1.30;;
50689;SDS011;71367;48.298;11.238;2023-09-19T14:25:35;3.07;;;0.90;;
50689;SDS011;71367;48.298;11.238;2023-09-19T14:40:40;1.83;;;1.10;;
50689;SDS011;71367;48.298;11.238;2023-09-19T14:55:45;3.60;;;1.20;;
50689;SDS011;71367;48.298;11.238;2023-09-19T15:10:50;2.77;;;1.30;;
50689;SDS011;71367;48.298;11.238;2023-09-19T15:25:55;2.97;;;1.03;;
50689;SDS011;71367;48.298;11.238;2023-09-19T15:40:58;2.80;;;1.07;;
50689;SDS011;71367;48.298;11.238;2023-09-19T15:56:04;3.50;;;1.10;;
50689;SDS011;71367;48.298;11.238;2023-09-19T16:11:09;2.27;;;1.00;;
50689;SDS011;71367;48.298;11.238;2023-09-19T16:26:14;2.10;;;1.10;;
50689;SDS011;71367;48.298;11.238;2023-09-19T16:41:18;2.15;;;1.00;;
50689;SDS011;71367;48.298;11.238;2023-09-19T16:56:22;1.48;;;0.88;;
50689;SDS011;71367;48.298;11.238;2023-09-19T17:11:26;1.80;;;1.00;;
50689;SDS011;71367;48.298;11.238;2023-09-19T17:26:31;2.65;;;1.23;;
50689;SDS011;71367;48.298;11.238;2023-09-19T17:41:35;3.55;;;1.05;;
50689;SDS011;71367;48.298;11.238;2023-09-19T17:56:38;4.40;;;1.20;;
50689;SDS011;71367;48.298;11.238;2023-09-19T18:11:41;2.65;;;1.10;;
50689;SDS011;71367;48.298;11.238;2023-09-19T18:26:46;1.95;;;1.10;;
50689;SDS011;71367;48.298;11.238;2023-09-19T18:41:50;2.55;;;1.02;;
50689;SDS011;71367;48.298;11.238;2023-09-19T18:56:55;2.85;;;1.65;;
50689;SDS011;71367;48.298;11.238;2023-09-19T19:12:00;3.85;;;1.50;;
50689;SDS011;71367;48.298;11.238;2023-09-19T19:27:05;3.17;;;1.60;;
50689;SDS011;71367;48.298;11.238;2023-09-19T19:42:09;2.75;;;1.75;;
50689;SDS011;71367;48.298;11.238;2023-09-19T19:57:12;2.10;;;1.30;;
50689;SDS011;71367;48.298;11.238;2023-09-19T20:12:17;2.35;;;1.52;;
50689;SDS011;71367;48.298;11.238;2023-09-19T20:27:21;4.22;;;1.88;;
50689;SDS011;71367;48.298;11.238;2023-09-19T20:42:25;2.30;;;1.35;;
50689;SDS011;71367;48.298;11.238;2023-09-19T20:57:31;4.18;;;2.22;;
50689;SDS011;71367;48.298;11.238;2023-09-19T21:12:37;4.78;;;2.63;;
50689;SDS011;71367;48.298;11.238;2023-09-19T21:27:49;4.05;;;2.20;;
50689;SDS011;71367;48.298;11.238;2023-09-19T21:42:53;3.65;;;2.05;;
50689;SDS011;71367;48.298;11.238;2023-09-19T21:57:58;3.90;;;2.28;;
50689;SDS011;71367;48.298;11.238;2023-09-19T22:13:02;4.38;;;2.50;;
50689;SDS011;71367;48.298;11.238;2023-09-19T22:28:07;3.67;;;2.30;;
50689;SDS011;71367;48.298;11.238;2023-09-19T22:43:13;5.25;;;2.80;;
50689;SDS011;71367;48.298;11.238;2023-09-19T22:58:16;4.65;;;2.72;;
50689;SDS011;71367;48.298;11.238;2023-09-19T23:13:20;5.05;;;2.60;;
50689;SDS011;71367;48.298;11.238;2023-09-19T23:28:30;3.37;;;2.00;;
50689;SDS011;71367;48.298;11.238;2023-09-19T23:43:36;3.47;;;2.13;;
50689;SDS011;71367;48.298;11.238;2023-09-19T23:58:42;2.75;;;1.85;;
